Time;durP1;ratioP1;P1;durP2;ratioP2;P2;SDS_P1;SDS_P2;PMS_P1;PMS_P2;Temp;Humidity;BMP_temperature;BMP_pressure;BME280_temperature;BME280_humidity;BME280_pressure;Samples;Min_cycle;Max_cycle;Signal;HPM_P1;HPM_P2
2022/10/14 00:01:51;;;;;;;8.63;5.85;;;;;;;;;;5051872;28;20029;-66
2022/10/14 00:04:16;;;;;;;9.68;6.20;;;;;;;;;;5052081;28;20100;-65
2022/10/14 00:06:41;;;;;;;8.98;6.00;;;;;;;;;;5052032;28;20032;-68
2022/10/14 00:09:08;;;;;;;9.15;6.18;;;;;;;;;;5053191;28;20063;-67
2022/10/14 00:11:36;;;;;;;9.27;6.40;;;;;;;;;;5055673;28;20029;-68
2022/10/14 00:14:06;;;;;;;9.80;6.60;;;;;;;;;;5055689;28;20074;-65
2022/10/14 00:16:34;;;;;;;9.52;6.30;;;;;;;;;;5055566;28;20025;-67
2022/10/14 00:19:00;;;;;;;8.63;6.07;;;;;;;;;;5055636;28;20068;-68
2022/10/14 00:21:27;;;;;;;9.52;6.10;;;;;;;;;;5055631;28;20461;-67
2022/10/14 00:23:53;;;;;;;7.47;5.95;;;;;;;;;;5055593;28;20070;-68
2022/10/14 00:26:23;;;;;;;10.15;5.95;;;;;;;;;;5055552;28;20621;-69
2022/10/14 00:28:49;;;;;;;7.90;6.05;;;;;;;;;;5055417;28;20029;-68
2022/10/14 00:31:16;;;;;;;10.32;6.13;;;;;;;;;;5055416;28;20021;-69
2022/10/14 00:33:41;;;;;;;8.00;6.05;;;;;;;;;;5055345;28;20104;-64
2022/10/14 00:36:10;;;;;;;7.85;6.15;;;;;;;;;;5054968;28;20453;-68
2022/10/14 00:38:36;;;;;;;6.45;5.63;;;;;;;;;;5055087;28;20056;-67
2022/10/14 00:41:02;;;;;;;9.82;6.07;;;;;;;;;;5055208;28;20025;-69
2022/10/14 00:43:29;;;;;;;8.65;6.32;;;;;;;;;;5055179;28;20033;-65
2022/10/14 00:45:54;;;;;;;8.93;6.13;;;;;;;;;;5055100;28;20032;-66
2022/10/14 00:48:23;;;;;;;7.25;5.68;;;;;;;;;;5055067;28;20021;-65
2022/10/14 00:50:53;;;;;;;9.45;6.32;;;;;;;;;;5055079;28;20029;-65
2022/10/14 00:53:19;;;;;;;;;;;;;;;;;;5055221;28;20060;-66
2022/10/14 00:55:45;;;;;;;8.23;5.90;;;;;;;;;;5054578;28;20009;-64
2022/10/14 00:58:11;;;;;;;8.77;6.32;;;;;;;;;;5054991;28;20166;-66
2022/10/14 01:00:37;;;;;;;10.10;6.15;;;;;;;;;;5054608;28;20025;-68
2022/10/14 01:03:17;;;;;;;7.05;6.00;;;;;;;;;;5053313;28;20378;-65
2022/10/14 01:06:02;;;;;;;7.68;5.75;;;;;;;;;;5054778;28;20037;-66
2022/10/14 01:08:41;;;;;;;7.57;5.78;;;;;;;;;;5054792;28;20104;-68
2022/10/14 01:11:16;;;;;;;9.38;6.00;;;;;;;;;;5054763;28;20382;-69
2022/10/14 01:14:08;;;;;;;8.85;5.95;;;;;;;;;;5053212;28;20031;-67
2022/10/14 01:16:51;;;;;;;9.60;6.75;;;;;;;;;;5054066;28;20125;-69
2022/10/14 01:19:43;;;;;;;10.00;6.35;;;;;;;;;;5054573;28;20096;-66
2022/10/14 01:22:53;;;;;;;6.32;5.47;;;;;;;;;;5053932;28;20434;-65
2022/10/14 01:25:22;;;;;;;8.60;6.45;;;;;;;;;;5038159;28;20445;-68
2022/10/14 01:27:51;;;;;;;8.60;6.28;;;;;;;;;;5054181;28;20025;-68
2022/10/14 01:30:21;;;;;;;7.82;6.10;;;;;;;;;;5054440;28;20021;-66
2022/10/14 01:33:08;;;;;;;6.88;5.70;;;;;;;;;;5054234;28;20025;-69
2022/10/14 01:35:48;;;;;;;9.57;5.75;;;;;;;;;;5053788;28;20519;-65
2022/10/14 01:38:26;;;;;;;;;;;;;;;;;;5054335;28;20021;-68
2022/10/14 01:40:57;;;;;;;7.47;5.32;;;;;;;;;;5052594;28;19943;-67
2022/10/14 01:43:26;;;;;;;6.95;5.72;;;;;;;;;;5054034;28;20032;-65
2022/10/14 01:45:54;;;;;;;10.10;6.27;;;;;;;;;;5054041;28;20031;-64
2022/10/14 01:48:25;;;;;;;9.73;6.05;;;;;;;;;;5053641;28;20017;-67
2022/10/14 01:50:53;;;;;;;12.35;6.35;;;;;;;;;;5053611;28;20025;-68
2022/10/14 01:53:28;;;;;;;15.90;6.80;;;;;;;;;;5053812;28;20036;-67
2022/10/14 01:55:56;;;;;;;8.52;5.70;;;;;;;;;;5053356;28;20055;-65
2022/10/14 01:58:25;;;;;;;8.07;5.88;;;;;;;;;;5053794;28;20040;-66
2022/10/14 02:00:51;;;;;;;8.87;6.00;;;;;;;;;;5053518;28;20087;-66
2022/10/14 02:03:16;;;;;;;7.72;5.50;;;;;;;;;;5053353;28;20057;-64
2022/10/14 02:05:52;;;;;;;8.77;6.05;;;;;;;;;;5053382;28;20473;-68
2022/10/14 02:08:38;;;;;;;8.93;5.75;;;;;;;;;;5053615;28;20036;-67
2022/10/14 02:11:15;;;;;;;10.00;6.30;;;;;;;;;;5053295;28;20465;-68
2022/10/14 02:14:11;;;;;;;9.90;5.93;;;;;;;;;;5053150;28;20492;-65
2022/10/14 02:16:37;;;;;;;7.95;6.00;;;;;;;;;;5053073;28;20473;-65
2022/10/14 02:19:28;;;;;;;9.52;6.63;;;;;;;;;;5053212;28;20396;-64
2022/10/14 02:22:09;;;;;;;9.07;6.35;;;;;;;;;;5053356;28;20029;-64
2022/10/14 02:24:39;;;;;;;9.65;6.18;;;;;;;;;;5053401;28;20049;-66
2022/10/14 02:27:10;;;;;;;8.25;6.18;;;;;;;;;;5053212;28;20074;-68
2022/10/14 02:29:39;;;;;;;8.02;6.40;;;;;;;;;;5053279;28;20033;-66
2022/10/14 02:32:05;;;;;;;6.55;5.55;;;;;;;;;;5052583;28;20013;-65
2022/10/14 02:34:32;;;;;;;9.10;6.00;;;;;;;;;;5052683;28;20108;-60
2022/10/14 02:36:58;;;;;;;9.85;6.22;;;;;;;;;;5052764;28;20044;-61
2022/10/14 02:39:35;;;;;;;7.63;6.10;;;;;;;;;;5052778;28;20040;-67
2022/10/14 02:42:00;;;;;;;8.60;6.00;;;;;;;;;;5052809;28;20055;-62
2022/10/14 02:44:26;;;;;;;7.72;5.93;;;;;;;;;;5052636;28;20112;-62
2022/10/14 02:46:55;;;;;;;6.85;5.90;;;;;;;;;;5052640;28;20025;-66
2022/10/14 02:49:20;;;;;;;8.85;6.07;;;;;;;;;;5052540;28;20036;-64
2022/10/14 02:51:45;;;;;;;10.60;5.88;;;;;;;;;;5052627;28;20033;-68
2022/10/14 02:54:11;;;;;;;7.78;6.00;;;;;;;;;;5052743;28;20035;-63
2022/10/14 02:56:36;;;;;;;7.70;6.38;;;;;;;;;;5052693;28;20033;-69
2022/10/14 02:59:02;;;;;;;7.22;5.80;;;;;;;;;;5052395;28;20029;-64
2022/10/14 03:01:27;;;;;;;8.73;6.35;;;;;;;;;;5052772;28;20029;-62
2022/10/14 03:03:52;;;;;;;10.90;7.20;;;;;;;;;;5052337;28;20029;-64
2022/10/14 03:06:18;;;;;;;10.45;6.30;;;;;;;;;;5052396;28;20094;-61
2022/10/14 03:08:43;;;;;;;6.20;5.60;;;;;;;;;;5052658;28;20369;-63
2022/10/14 03:11:09;;;;;;;7.22;6.15;;;;;;;;;;5052593;28;20029;-63
2022/10/14 03:13:34;;;;;;;10.90;5.78;;;;;;;;;;5052316;28;20051;-63
2022/10/14 03:15:59;;;;;;;8.02;6.10;;;;;;;;;;5052188;28;20033;-62
2022/10/14 03:18:25;;;;;;;11.00;6.47;;;;;;;;;;5052132;28;20480;-61
2022/10/14 03:20:50;;;;;;;7.03;6.32;;;;;;;;;;5052222;28;20037;-66
2022/10/14 03:23:16;;;;;;;9.20;6.30;;;;;;;;;;5052419;28;20021;-61
2022/10/14 03:25:44;;;;;;;8.32;6.72;;;;;;;;;;5052132;28;20060;-61
2022/10/14 03:28:11;;;;;;;7.93;5.88;;;;;;;;;;5052255;28;20112;-61
2022/10/14 03:30:36;;;;;;;7.30;5.80;;;;;;;;;;5052367;28;20035;-64
2022/10/14 03:33:01;;;;;;;10.10;6.07;;;;;;;;;;5052162;28;20486;-65
2022/10/14 03:35:27;;;;;;;7.57;6.18;;;;;;;;;;5052086;28;20221;-62
2022/10/14 03:37:53;;;;;;;8.93;6.43;;;;;;;;;;5052352;28;20045;-63
2022/10/14 03:40:19;;;;;;;8.50;6.20;;;;;;;;;;5052096;28;20061;-64
2022/10/14 03:42:45;;;;;;;9.00;6.03;;;;;;;;;;5052318;28;20032;-66
2022/10/14 03:45:10;;;;;;;9.48;5.90;;;;;;;;;;5055146;28;20025;-62
2022/10/14 03:47:36;;;;;;;8.45;6.70;;;;;;;;;;5055878;28;20017;-65
2022/10/14 03:50:03;;;;;;;7.40;6.15;;;;;;;;;;5056214;28;20487;-64
2022/10/14 03:52:29;;;;;;;9.95;5.90;;;;;;;;;;5055846;28;20033;-62
2022/10/14 03:54:54;;;;;;;6.93;5.85;;;;;;;;;;5055559;28;20051;-67
2022/10/14 03:57:20;;;;;;;8.20;6.13;;;;;;;;;;5056056;28;20111;-66
2022/10/14 03:59:45;;;;;;;7.40;6.03;;;;;;;;;;5055741;28;20048;-69
2022/10/14 04:02:10;;;;;;;6.93;5.78;;;;;;;;;;5056011;28;20059;-66
2022/10/14 04:04:36;;;;;;;7.82;5.88;;;;;;;;;;5055983;28;20055;-62
2022/10/14 04:07:01;;;;;;;7.93;6.40;;;;;;;;;;5055807;28;20036;-61
2022/10/14 04:09:28;;;;;;;7.88;5.80;;;;;;;;;;5055637;28;20092;-65
2022/10/14 04:11:55;;;;;;;10.90;6.50;;;;;;;;;;5055326;28;20492;-64
2022/10/14 04:14:22;;;;;;;10.00;6.63;;;;;;;;;;5055033;28;20078;-62
2022/10/14 04:16:48;;;;;;;7.47;6.10;;;;;;;;;;5055634;28;20033;-62
2022/10/14 04:19:13;;;;;;;9.90;7.00;;;;;;;;;;5055499;28;20426;-62
2022/10/14 04:21:38;;;;;;;9.30;6.65;;;;;;;;;;5055673;28;20021;-61
2022/10/14 04:24:04;;;;;;;7.97;5.75;;;;;;;;;;5055323;28;20592;-62
2022/10/14 04:26:29;;;;;;;8.73;6.57;;;;;;;;;;5055564;28;20025;-61
2022/10/14 04:28:55;;;;;;;9.30;6.07;;;;;;;;;;5054303;28;20025;-61
2022/10/14 04:31:21;;;;;;;11.00;6.25;;;;;;;;;;5055195;28;20032;-61
2022/10/14 04:33:47;;;;;;;8.38;6.32;;;;;;;;;;5055137;28;20040;-61
2022/10/14 04:36:13;;;;;;;8.18;6.22;;;;;;;;;;5055344;28;20029;-61
2022/10/14 04:38:38;;;;;;;9.05;6.80;;;;;;;;;;5055121;28;20040;-60
2022/10/14 04:41:04;;;;;;;9.57;6.53;;;;;;;;;;5055294;28;20031;-67
2022/10/14 04:43:29;;;;;;;9.10;6.38;;;;;;;;;;5055211;28;20108;-63
2022/10/14 04:45:54;;;;;;;12.90;7.30;;;;;;;;;;5054936;28;20036;-70
2022/10/14 04:48:20;;;;;;;15.20;6.90;;;;;;;;;;5055196;28;20031;-70
2022/10/14 04:50:50;;;;;;;7.57;6.63;;;;;;;;;;5054770;28;20381;-61
2022/10/14 04:53:15;;;;;;;7.95;6.38;;;;;;;;;;5055101;28;20021;-61
2022/10/14 04:55:42;;;;;;;7.00;5.85;;;;;;;;;;5053520;28;20112;-71
2022/10/14 04:58:08;;;;;;;9.05;6.57;;;;;;;;;;5054646;28;20032;-62
2022/10/14 05:00:33;;;;;;;9.85;6.15;;;;;;;;;;5054743;28;20021;-71
2022/10/14 05:02:59;;;;;;;7.45;6.53;;;;;;;;;;5054867;28;20102;-61
2022/10/14 05:05:24;;;;;;;9.60;6.22;;;;;;;;;;5054623;28;20113;-60
2022/10/14 05:07:50;;;;;;;8.93;6.68;;;;;;;;;;5054820;28;20075;-69
2022/10/14 05:10:15;;;;;;;10.48;6.65;;;;;;;;;;5054704;28;20033;-61
2022/10/14 05:12:40;;;;;;;7.35;6.43;;;;;;;;;;5054659;28;20025;-60
2022/10/14 05:15:06;;;;;;;8.52;6.55;;;;;;;;;;5054647;28;20578;-60
2022/10/14 05:17:33;;;;;;;8.05;6.07;;;;;;;;;;5054297;28;20087;-69
2022/10/14 05:19:58;;;;;;;10.07;6.18;;;;;;;;;;5054286;28;20033;-64
2022/10/14 05:22:24;;;;;;;9.10;6.53;;;;;;;;;;5054233;28;20019;-60
2022/10/14 05:24:50;;;;;;;9.70;6.82;;;;;;;;;;5054441;28;20096;-62
2022/10/14 05:27:16;;;;;;;8.95;6.20;;;;;;;;;;5054127;28;20420;-61
2022/10/14 05:29:41;;;;;;;8.65;6.55;;;;;;;;;;5053964;28;20021;-59
2022/10/14 05:32:07;;;;;;;8.73;6.45;;;;;;;;;;5054013;28;20029;-60
2022/10/14 05:34:33;;;;;;;8.45;6.43;;;;;;;;;;5054275;28;20112;-63
2022/10/14 05:36:59;;;;;;;8.45;6.68;;;;;;;;;;5054049;28;20112;-67
2022/10/14 05:39:24;;;;;;;11.43;6.35;;;;;;;;;;5054250;28;20100;-72
2022/10/14 05:41:49;;;;;;;10.60;6.43;;;;;;;;;;5054194;28;20025;-60
2022/10/14 05:44:15;;;;;;;8.85;6.22;;;;;;;;;;5054105;28;20568;-67
2022/10/14 05:46:40;;;;;;;11.63;6.63;;;;;;;;;;5053756;28;20033;-63
2022/10/14 05:49:06;;;;;;;6.93;6.20;;;;;;;;;;5054034;28;20028;-64
2022/10/14 05:51:32;;;;;;;8.20;6.57;;;;;;;;;;5053890;28;20031;-60
2022/10/14 05:53:58;;;;;;;9.23;6.20;;;;;;;;;;5053648;28;20033;-62
2022/10/14 05:56:23;;;;;;;9.57;6.75;;;;;;;;;;5053359;28;20045;-69
2022/10/14 05:58:48;;;;;;;9.25;6.70;;;;;;;;;;5053784;28;20024;-60
2022/10/14 06:01:14;;;;;;;11.65;6.90;;;;;;;;;;5053479;28;20052;-60
2022/10/14 06:03:39;;;;;;;11.90;6.78;;;;;;;;;;5053607;28;20048;-70
2022/10/14 06:06:05;;;;;;;9.32;6.97;;;;;;;;;;5053686;28;20484;-60
2022/10/14 06:08:30;;;;;;;10.80;6.68;;;;;;;;;;5053061;28;20025;-68
2022/10/14 06:10:56;;;;;;;8.60;6.32;;;;;;;;;;5053569;28;20021;-63
2022/10/14 06:13:21;;;;;;;8.60;7.07;;;;;;;;;;5053251;28;20082;-61
2022/10/14 06:15:47;;;;;;;13.77;7.60;;;;;;;;;;5053393;28;20043;-60
2022/10/14 06:18:12;;;;;;;10.57;7.03;;;;;;;;;;5053409;28;20029;-61
2022/10/14 06:20:38;;;;;;;13.85;7.63;;;;;;;;;;5052919;28;20473;-68
2022/10/14 06:23:03;;;;;;;16.85;8.63;;;;;;;;;;5053273;28;20024;-68
2022/10/14 06:25:29;;;;;;;8.43;6.65;;;;;;;;;;5053314;28;20028;-63
2022/10/14 06:28:00;;;;;;;10.85;7.70;;;;;;;;;;5053012;28;20104;-70
2022/10/14 06:30:25;;;;;;;10.43;8.00;;;;;;;;;;5053206;28;20056;-60
2022/10/14 06:32:53;;;;;;;11.98;8.45;;;;;;;;;;5052820;28;20059;-61
2022/10/14 06:35:19;;;;;;;10.23;7.88;;;;;;;;;;5053040;28;20021;-60
2022/10/14 06:37:45;;;;;;;10.65;8.57;;;;;;;;;;5052858;28;20035;-64
2022/10/14 06:40:11;;;;;;;11.02;9.13;;;;;;;;;;5052802;28;20501;-61
2022/10/14 06:42:37;;;;;;;13.25;8.55;;;;;;;;;;5052934;28;20105;-69
2022/10/14 06:45:03;;;;;;;11.63;9.23;;;;;;;;;;5052739;28;20053;-69
2022/10/14 06:47:29;;;;;;;13.38;8.88;;;;;;;;;;5052839;28;20108;-60
2022/10/14 06:49:54;;;;;;;15.00;9.00;;;;;;;;;;5052640;28;20114;-61
2022/10/14 06:52:19;;;;;;;12.50;8.27;;;;;;;;;;5052865;28;20021;-62
2022/10/14 06:54:45;;;;;;;11.10;7.55;;;;;;;;;;5052462;28;20128;-61
2022/10/14 06:57:10;;;;;;;10.15;7.38;;;;;;;;;;5052443;28;20040;-66
2022/10/14 06:59:37;;;;;;;12.55;8.07;;;;;;;;;;5052501;28;20025;-61
2022/10/14 07:02:03;;;;;;;10.82;8.25;;;;;;;;;;5052417;28;20488;-68
2022/10/14 07:04:29;;;;;;;13.68;7.97;;;;;;;;;;5052692;28;20108;-63
2022/10/14 07:06:56;;;;;;;9.02;7.70;;;;;;;;;;5052394;28;20033;-68
2022/10/14 07:09:21;;;;;;;11.73;8.07;;;;;;;;;;5052362;28;20567;-64
2022/10/14 07:11:47;;;;;;;11.55;8.18;;;;;;;;;;5052335;28;20115;-64
2022/10/14 07:14:12;;;;;;;12.40;8.95;;;;;;;;;;5052621;28;20072;-62
2022/10/14 07:16:38;;;;;;;12.00;8.40;;;;;;;;;;5049867;28;20049;-64
2022/10/14 07:19:03;;;;;;;11.38;8.50;;;;;;;;;;5045972;28;20044;-72
2022/10/14 07:21:29;;;;;;;10.40;7.60;;;;;;;;;;5046468;28;20021;-71
2022/10/14 07:23:54;;;;;;;11.75;8.35;;;;;;;;;;5047621;28;20028;-61
2022/10/14 07:26:20;;;;;;;13.77;8.35;;;;;;;;;;5047756;28;20021;-70
2022/10/14 07:28:45;;;;;;;11.25;8.15;;;;;;;;;;5046280;28;20453;-64
2022/10/14 07:31:12;;;;;;;11.50;8.90;;;;;;;;;;5043976;28;20029;-62
2022/10/14 07:33:38;;;;;;;11.60;8.50;;;;;;;;;;5045693;28;20021;-61
2022/10/14 07:36:08;;;;;;;10.32;8.45;;;;;;;;;;5047022;28;20037;-66
2022/10/14 07:38:34;;;;;;;11.77;8.93;;;;;;;;;;5048589;28;20018;-66
2022/10/14 07:41:06;;;;;;;14.43;9.10;;;;;;;;;;5048888;28;20028;-65
2022/10/14 07:43:33;;;;;;;11.23;8.57;;;;;;;;;;5048009;28;20026;-64
2022/10/14 07:46:01;;;;;;;11.23;8.55;;;;;;;;;;5049844;28;20779;-66
2022/10/14 07:48:29;;;;;;;11.80;7.75;;;;;;;;;;5046821;28;20116;-71
2022/10/14 07:50:55;;;;;;;13.35;8.95;;;;;;;;;;5052151;28;20029;-66
2022/10/14 07:53:22;;;;;;;15.00;9.02;;;;;;;;;;5051733;28;20024;-64
2022/10/14 07:55:51;;;;;;;12.40;8.93;;;;;;;;;;5051485;28;20079;-64
2022/10/14 07:58:25;;;;;;;10.88;8.38;;;;;;;;;;5051897;28;20029;-69
2022/10/14 08:00:51;;;;;;;13.13;8.88;;;;;;;;;;5051848;28;20017;-69
2022/10/14 08:03:19;;;;;;;11.45;8.38;;;;;;;;;;5051749;28;20044;-63
2022/10/14 08:05:46;;;;;;;10.38;8.43;;;;;;;;;;5050859;28;20072;-66
2022/10/14 08:08:13;;;;;;;12.68;8.75;;;;;;;;;;5050202;28;20465;-63
2022/10/14 08:10:39;;;;;;;12.68;9.38;;;;;;;;;;5050472;28;20078;-68
2022/10/14 08:13:04;;;;;;;17.02;9.10;;;;;;;;;;5050199;28;20025;-63
2022/10/14 08:15:41;;;;;;;15.80;9.50;;;;;;;;;;5050173;28;20048;-65
2022/10/14 08:18:08;;;;;;;11.20;8.57;;;;;;;;;;5050118;28;20060;-69
2022/10/14 08:20:34;;;;;;;12.48;9.30;;;;;;;;;;5050391;28;20098;-69
2022/10/14 08:22:59;;;;;;;11.50;8.88;;;;;;;;;;5050396;28;20029;-71
2022/10/14 08:25:26;;;;;;;9.60;8.38;;;;;;;;;;5050269;28;20036;-64
2022/10/14 08:27:53;;;;;;;11.13;8.98;;;;;;;;;;5050336;28;20033;-71
2022/10/14 08:30:18;;;;;;;11.25;9.07;;;;;;;;;;5050028;28;20488;-71
2022/10/14 08:32:44;;;;;;;12.27;8.60;;;;;;;;;;5053669;28;20108;-62
2022/10/14 08:35:10;;;;;;;18.95;9.15;;;;;;;;;;5053495;28;20037;-60
2022/10/14 08:37:35;;;;;;;13.57;8.80;;;;;;;;;;5053596;28;20492;-62
2022/10/14 08:40:01;;;;;;;11.32;8.70;;;;;;;;;;5051240;28;20018;-62
2022/10/14 08:43:02;;;;;;;14.50;8.52;;;;;;;;;;5048181;28;20032;-62
2022/10/14 08:45:36;;;;;;;10.32;8.55;;;;;;;;;;5050429;28;20091;-60
2022/10/14 08:48:08;;;;;;;12.20;8.57;;;;;;;;;;5053290;28;20032;-61
2022/10/14 08:51:06;;;;;;;13.38;8.57;;;;;;;;;;5053585;28;20071;-64
2022/10/14 08:53:37;;;;;;;15.38;8.73;;;;;;;;;;5051613;28;20115;-65
2022/10/14 08:56:04;;;;;;;15.25;9.30;;;;;;;;;;5051555;28;20057;-66
2022/10/14 08:58:32;;;;;;;11.80;8.88;;;;;;;;;;5051078;28;20017;-66
2022/10/14 09:01:03;;;;;;;11.25;8.45;;;;;;;;;;5053395;28;20461;-61
2022/10/14 09:03:35;;;;;;;11.68;8.73;;;;;;;;;;5053161;28;20040;-66
2022/10/14 09:06:05;;;;;;;16.38;8.90;;;;;;;;;;5053263;28;20029;-65
2022/10/14 09:08:46;;;;;;;14.10;8.73;;;;;;;;;;5052816;28;20476;-62
2022/10/14 09:11:18;;;;;;;11.07;8.63;;;;;;;;;;5053139;28;20025;-61
2022/10/14 09:13:54;;;;;;;16.25;9.40;;;;;;;;;;5053116;28;20504;-64
2022/10/14 09:16:26;;;;;;;10.85;8.93;;;;;;;;;;5051248;28;20037;-65
2022/10/14 09:18:58;;;;;;;14.05;8.75;;;;;;;;;;5052744;28;20037;-65
2022/10/14 09:21:36;;;;;;;13.00;9.10;;;;;;;;;;5052744;28;20108;-64
2022/10/14 09:24:22;;;;;;;10.88;8.57;;;;;;;;;;5033387;28;20072;-61
2022/10/14 09:26:51;;;;;;;11.27;8.70;;;;;;;;;;5032499;28;20021;-61
2022/10/14 09:29:29;;;;;;;16.10;9.25;;;;;;;;;;5032949;28;20072;-62
2022/10/14 09:32:07;;;;;;;10.23;8.73;;;;;;;;;;5032748;28;20425;-62
2022/10/14 09:34:44;;;;;;;9.75;8.40;;;;;;;;;;5032880;28;20380;-60
2022/10/14 09:37:26;;;;;;;12.50;8.75;;;;;;;;;;5050386;28;20055;-61
2022/10/14 09:39:55;;;;;;;11.52;8.40;;;;;;;;;;5052429;28;20024;-62
2022/10/14 09:42:25;;;;;;;11.82;8.95;;;;;;;;;;5052009;28;20029;-63
2022/10/14 09:45:12;;;;;;;13.43;8.57;;;;;;;;;;5048398;28;20060;-62
2022/10/14 09:47:56;;;;;;;11.70;8.23;;;;;;;;;;5049743;28;20028;-62
2022/10/14 09:50:31;;;;;;;14.95;8.90;;;;;;;;;;5052181;28;20546;-63
2022/10/14 09:53:02;;;;;;;11.80;8.52;;;;;;;;;;5052433;28;20041;-61
2022/10/14 09:55:28;;;;;;;10.07;8.02;;;;;;;;;;5051861;28;20064;-63
2022/10/14 09:58:14;;;;;;;11.38;8.77;;;;;;;;;;5052142;28;20047;-66
2022/10/14 10:00:40;;;;;;;13.32;8.00;;;;;;;;;;5052223;28;20021;-60
2022/10/14 10:03:06;;;;;;;13.40;8.38;;;;;;;;;;5051569;28;20029;-62
2022/10/14 10:05:33;;;;;;;10.63;8.30;;;;;;;;;;5051731;28;20071;-67
2022/10/14 10:08:13;;;;;;;11.65;8.80;;;;;;;;;;5052037;28;20032;-62
2022/10/14 10:10:39;;;;;;;13.00;8.32;;;;;;;;;;5051679;28;20527;-61
2022/10/14 10:13:20;;;;;;;12.27;8.80;;;;;;;;;;5051686;28;20029;-65
2022/10/14 10:15:57;;;;;;;10.13;8.07;;;;;;;;;;5051841;28;20116;-60
2022/10/14 10:18:23;;;;;;;14.52;8.07;;;;;;;;;;5051594;28;20107;-61
2022/10/14 10:21:01;;;;;;;14.95;8.90;;;;;;;;;;5051976;28;20119;-61
2022/10/14 10:23:28;;;;;;;13.07;8.52;;;;;;;;;;5051509;28;20121;-60
2022/10/14 10:25:54;;;;;;;12.98;8.20;;;;;;;;;;5051472;28;20358;-61
2022/10/14 10:28:30;;;;;;;15.93;8.93;;;;;;;;;;5051441;28;20552;-63
2022/10/14 10:31:24;;;;;;;12.25;8.60;;;;;;;;;;5051607;28;20071;-63
2022/10/14 10:34:06;;;;;;;11.13;8.05;;;;;;;;;;5040981;28;20492;-65
2022/10/14 10:36:42;;;;;;;13.25;9.38;;;;;;;;;;5051442;28;20033;-65
2022/10/14 10:39:23;;;;;;;11.60;8.95;;;;;;;;;;5051239;28;20492;-65
2022/10/14 10:42:07;;;;;;;12.23;8.50;;;;;;;;;;5051251;28;20053;-62
2022/10/14 10:44:39;;;;;;;14.32;8.30;;;;;;;;;;5050484;28;20104;-66
2022/10/14 10:47:16;;;;;;;13.13;8.23;;;;;;;;;;5050868;28;20382;-63
2022/10/14 10:49:53;;;;;;;13.20;8.32;;;;;;;;;;5050083;28;20032;-65
2022/10/14 10:52:55;;;;;;;15.13;9.00;;;;;;;;;;5050739;28;20036;-63
2022/10/14 10:55:24;;;;;;;13.70;8.68;;;;;;;;;;5050330;28;20076;-62
2022/10/14 10:58:16;;;;;;;11.25;8.85;;;;;;;;;;5050850;28;20433;-65
2022/10/14 11:01:01;;;;;;;10.80;7.95;;;;;;;;;;5050908;28;20477;-66
2022/10/14 11:04:12;;;;;;;10.00;8.07;;;;;;;;;;5051081;28;20056;-66
2022/10/14 11:12:58;;;;;;;13.45;7.70;;;;;;;;;;5050796;28;20036;-63
2022/10/14 11:15:30;;;;;;;11.60;7.50;;;;;;;;;;5050501;28;20064;-63
2022/10/14 11:18:20;;;;;;;15.05;7.38;;;;;;;;;;5050675;28;20021;-64
2022/10/14 11:20:59;;;;;;;9.25;7.18;;;;;;;;;;5050567;28;20424;-66
2022/10/14 11:23:38;;;;;;;12.25;7.35;;;;;;;;;;5050943;28;20394;-66
2022/10/14 11:26:24;;;;;;;10.52;6.63;;;;;;;;;;5051163;28;20033;-63
2022/10/14 11:29:17;;;;;;;10.82;6.15;;;;;;;;;;5049440;28;20025;-63
2022/10/14 11:32:22;;;;;;;8.80;6.15;;;;;;;;;;5050525;28;20489;-64
2022/10/14 11:35:00;;;;;;;11.48;6.40;;;;;;;;;;5050472;28;20540;-66
2022/10/14 11:37:45;;;;;;;14.05;6.30;;;;;;;;;;5050288;28;20514;-63
2022/10/14 11:40:14;;;;;;;11.77;6.15;;;;;;;;;;5049223;28;20108;-64
2022/10/14 11:43:01;;;;;;;7.28;5.75;;;;;;;;;;5050401;28;20079;-65
2022/10/14 11:45:40;;;;;;;6.65;5.43;;;;;;;;;;5050747;28;20083;-66
2022/10/14 11:48:27;;;;;;;9.90;5.72;;;;;;;;;;5050656;28;20028;-65
2022/10/14 11:51:29;;;;;;;5.50;4.63;;;;;;;;;;5050751;28;20110;-64
2022/10/14 11:54:16;;;;;;;8.43;5.32;;;;;;;;;;5050157;28;20033;-62
2022/10/14 11:56:49;;;;;;;7.85;5.00;;;;;;;;;;5050345;28;20147;-63
2022/10/14 11:59:30;;;;;;;6.22;4.75;;;;;;;;;;5050273;28;20384;-66
2022/10/14 12:02:01;;;;;;;10.88;4.65;;;;;;;;;;5050543;28;20025;-65
2022/10/14 12:04:32;;;;;;;10.77;5.10;;;;;;;;;;5050557;28;20103;-66
2022/10/14 12:07:16;;;;;;;6.47;4.32;;;;;;;;;;5054403;28;20043;-65
2022/10/14 12:09:50;;;;;;;6.18;4.22;;;;;;;;;;5053915;28;20388;-65
2022/10/14 12:12:19;;;;;;;6.35;4.47;;;;;;;;;;5054215;28;20111;-66
2022/10/14 12:14:56;;;;;;;12.13;4.93;;;;;;;;;;5054221;28;20120;-62
2022/10/14 12:17:33;;;;;;;8.27;4.70;;;;;;;;;;5053948;28;20041;-65
2022/10/14 12:20:06;;;;;;;9.43;5.10;;;;;;;;;;5051092;28;20519;-65
2022/10/14 12:22:32;;;;;;;7.63;4.70;;;;;;;;;;5049981;28;20036;-67
2022/10/14 12:25:09;;;;;;;5.80;4.38;;;;;;;;;;5052821;28;20409;-65
2022/10/14 12:27:36;;;;;;;7.50;4.82;;;;;;;;;;5051079;28;20013;-66
2022/10/14 12:30:02;;;;;;;8.43;4.93;;;;;;;;;;5050740;28;20029;-66
2022/10/14 12:32:30;;;;;;;9.35;4.53;;;;;;;;;;5053286;28;20029;-66
2022/10/14 12:34:58;;;;;;;7.85;4.60;;;;;;;;;;5053872;28;20025;-66
2022/10/14 12:37:23;;;;;;;9.18;4.70;;;;;;;;;;5053818;28;20037;-64
2022/10/14 12:39:53;;;;;;;7.72;4.45;;;;;;;;;;5054192;28;20033;-66
2022/10/14 12:42:20;;;;;;;10.93;5.38;;;;;;;;;;5050784;28;20405;-64
2022/10/14 12:44:55;;;;;;;6.15;4.65;;;;;;;;;;5053775;28;20036;-67
2022/10/14 12:47:27;;;;;;;13.75;4.65;;;;;;;;;;5033911;28;20140;-65
2022/10/14 12:49:55;;;;;;;7.47;4.75;;;;;;;;;;5033457;28;20025;-63
2022/10/14 12:52:54;;;;;;;7.75;4.90;;;;;;;;;;5033438;28;20381;-65
2022/10/14 12:55:23;;;;;;;8.32;4.95;;;;;;;;;;5032940;28;20045;-65
2022/10/14 12:58:00;;;;;;;6.47;4.95;;;;;;;;;;5033147;28;20695;-66
2022/10/14 13:00:37;;;;;;;12.35;4.60;;;;;;;;;;5033093;28;20102;-62
2022/10/14 13:03:04;;;;;;;8.38;4.88;;;;;;;;;;5033174;28;20036;-64
2022/10/14 13:05:32;;;;;;;7.65;4.85;;;;;;;;;;5032953;28;20508;-66
2022/10/14 13:08:19;;;;;;;10.32;5.10;;;;;;;;;;5033120;28;20052;-65
2022/10/14 13:10:49;;;;;;;7.13;4.80;;;;;;;;;;5032928;28;20426;-66
2022/10/14 13:13:52;;;;;;;8.35;4.70;;;;;;;;;;5034177;28;20132;-66
2022/10/14 13:16:20;;;;;;;9.57;4.72;;;;;;;;;;5032026;28;20033;-65
2022/10/14 13:18:45;;;;;;;8.95;4.85;;;;;;;;;;5034266;28;20473;-65
2022/10/14 13:21:37;;;;;;;5.60;4.65;;;;;;;;;;5034444;28;20068;-66
2022/10/14 13:24:30;;;;;;;9.43;4.55;;;;;;;;;;5053817;28;20040;-65
2022/10/14 13:27:21;;;;;;;7.82;4.90;;;;;;;;;;5054241;28;20060;-62
2022/10/14 13:29:52;;;;;;;7.32;4.78;;;;;;;;;;5054443;28;20048;-65
2022/10/14 13:32:36;;;;;;;12.00;5.13;;;;;;;;;;5052758;28;20057;-64
2022/10/14 13:35:08;;;;;;;10.18;4.20;;;;;;;;;;5054023;28;20534;-65
2022/10/14 13:37:36;;;;;;;8.88;4.82;;;;;;;;;;5054038;28;20074;-65
2022/10/14 13:40:29;;;;;;;8.70;4.82;;;;;;;;;;5052668;28;20052;-66
2022/10/14 13:42:57;;;;;;;6.88;4.30;;;;;;;;;;5054014;28;20033;-65
2022/10/14 13:45:31;;;;;;;7.57;4.53;;;;;;;;;;5047247;28;20029;-66
2022/10/14 13:47:56;;;;;;;16.17;4.90;;;;;;;;;;5054107;28;20059;-66
2022/10/14 13:50:24;;;;;;;13.00;4.68;;;;;;;;;;5053743;28;20037;-65
2022/10/14 13:52:52;;;;;;;14.50;4.63;;;;;;;;;;5042531;28;20029;-66
2022/10/14 13:55:20;;;;;;;9.68;4.65;;;;;;;;;;5041473;28;20041;-65
2022/10/14 13:58:20;;;;;;;7.40;4.40;;;;;;;;;;5052360;28;20043;-65
2022/10/14 14:00:56;;;;;;;9.97;5.00;;;;;;;;;;5030971;28;20048;-65
2022/10/14 14:03:31;;;;;;;9.63;4.90;;;;;;;;;;5053584;28;20266;-66
2022/10/14 14:05:58;;;;;;;11.45;4.70;;;;;;;;;;5053580;28;20433;-65
2022/10/14 14:08:28;;;;;;;5.07;4.38;;;;;;;;;;5053528;28;20045;-65
2022/10/14 14:10:56;;;;;;;13.93;5.10;;;;;;;;;;5051309;28;20489;-65
2022/10/14 14:13:24;;;;;;;6.85;4.25;;;;;;;;;;5053528;28;20059;-65
2022/10/14 14:15:53;;;;;;;11.45;4.25;;;;;;;;;;5053398;28;20474;-65
2022/10/14 14:18:32;;;;;;;6.55;4.45;;;;;;;;;;5044943;28;20025;-65
2022/10/14 14:20:58;;;;;;;14.32;4.43;;;;;;;;;;5053223;28;20167;-65
2022/10/14 14:23:27;;;;;;;6.60;4.40;;;;;;;;;;5053493;28;20108;-65
2022/10/14 14:25:53;;;;;;;5.60;4.10;;;;;;;;;;5053314;28;20047;-65
2022/10/14 14:28:19;;;;;;;6.95;4.55;;;;;;;;;;5050202;28;20482;-65
2022/10/14 14:30:51;;;;;;;7.35;4.50;;;;;;;;;;5053226;28;20029;-65
2022/10/14 14:33:21;;;;;;;7.63;4.28;;;;;;;;;;5044297;28;20193;-65
2022/10/14 14:35:55;;;;;;;8.10;4.28;;;;;;;;;;5040042;28;20154;-65
2022/10/14 14:38:27;;;;;;;8.27;4.07;;;;;;;;;;5052924;28;20017;-65
2022/10/14 14:41:00;;;;;;;8.35;4.63;;;;;;;;;;5048068;28;20078;-65
2022/10/14 14:43:26;;;;;;;13.60;4.47;;;;;;;;;;5033031;28;20021;-66
2022/10/14 14:45:52;;;;;;;9.52;4.40;;;;;;;;;;5039856;28;20110;-65
2022/10/14 14:48:18;;;;;;;6.25;4.28;;;;;;;;;;5033021;28;20119;-65
2022/10/14 14:50:44;;;;;;;7.03;4.22;;;;;;;;;;5032759;28;20181;-65
2022/10/14 14:53:28;;;;;;;7.50;4.05;;;;;;;;;;5032939;28;20065;-65
2022/10/14 14:55:53;;;;;;;7.13;4.47;;;;;;;;;;5048180;28;20059;-65
2022/10/14 14:58:37;;;;;;;7.93;4.28;;;;;;;;;;5051899;28;20484;-65
2022/10/14 15:01:05;;;;;;;8.80;4.50;;;;;;;;;;5050176;28;20041;-65
2022/10/14 15:03:34;;;;;;;5.45;3.85;;;;;;;;;;5047293;28;20028;-64
2022/10/14 15:06:04;;;;;;;5.27;4.10;;;;;;;;;;5052331;28;20032;-65
2022/10/14 15:08:33;;;;;;;6.38;4.18;;;;;;;;;;5048931;28;20355;-66